Time;durP1;ratioP1;P1;durP2;ratioP2;P2;SDS_P1;SDS_P2;PMS_P1;PMS_P2;Temp;Humidity;BMP_temperature;BMP_pressure;BME280_temperature;BME280_humidity;BME280_pressure;Samples;Min_cycle;Max_cycle;Signal;HPM_P1;HPM_P2
2024/02/26 00:01:49;;;;;;;6.55;4.10;;;8.90;98.50;;;;;;5087681;28;20070;-74
2024/02/26 00:04:14;;;;;;;8.40;3.88;;;8.90;98.60;;;;;;5100169;28;20044;-74
2024/02/26 00:06:41;;;;;;;8.05;4.00;;;8.90;98.50;;;;;;5093633;28;20059;-74
2024/02/26 00:09:07;;;;;;;6.43;4.13;;;8.90;98.60;;;;;;5099974;28;20067;-74
2024/02/26 00:11:33;;;;;;;5.85;3.80;;;8.90;98.60;;;;;;5099486;28;20024;-73
2024/02/26 00:13:59;;;;;;;6.45;3.75;;;8.90;98.50;;;;;;5093220;28;20088;-73
2024/02/26 00:16:25;;;;;;;8.80;3.42;;;8.90;98.60;;;;;;5098975;28;20031;-73
2024/02/26 00:18:50;;;;;;;4.38;2.90;;;8.90;98.60;;;;;;5096598;28;20027;-74
2024/02/26 00:21:16;;;;;;;5.18;2.90;;;8.80;98.50;;;;;;5094416;28;20050;-74
2024/02/26 00:23:41;;;;;;;5.03;3.03;;;8.80;98.70;;;;;;5094511;28;20113;-73
2024/02/26 00:26:07;;;;;;;5.88;2.45;;;8.70;98.80;;;;;;5108584;28;20051;-73
2024/02/26 00:28:33;;;;;;;4.38;3.00;;;8.80;98.80;;;;;;5102335;27;20034;-73
2024/02/26 00:30:59;;;;;;;4.15;2.60;;;8.80;98.80;;;;;;5106707;28;20028;-74
2024/02/26 00:33:25;;;;;;;3.85;2.63;;;8.80;98.70;;;;;;5108553;28;20027;-73
2024/02/26 00:35:50;;;;;;;5.07;2.60;;;8.90;98.60;;;;;;5106362;28;20528;-74
2024/02/26 00:38:16;;;;;;;4.53;2.47;;;8.90;98.50;;;;;;5110927;28;20109;-74
2024/02/26 00:40:41;;;;;;;3.55;2.20;;;8.90;98.50;;;;;;5099572;28;20166;-74
2024/02/26 00:43:07;;;;;;;4.75;1.67;;;8.90;98.40;;;;;;5095221;28;20042;-74
2024/02/26 00:45:35;;;;;;;2.60;1.92;;;8.90;98.50;;;;;;5096588;28;20040;-75
2024/02/26 00:48:04;;;;;;;4.75;2.10;;;8.80;98.50;;;;;;5090021;28;20395;-73
2024/02/26 00:50:39;;;;;;;5.05;2.15;;;8.80;98.50;;;;;;5095338;28;20123;-74
2024/02/26 00:53:05;;;;;;;3.35;2.50;;;8.80;98.60;;;;;;5109745;28;20062;-73
2024/02/26 00:55:31;;;;;;;3.05;2.25;;;8.80;98.60;;;;;;5095093;28;20024;-73
2024/02/26 00:57:59;;;;;;;3.03;2.10;;;8.80;98.50;;;;;;5100340;28;20118;-74
2024/02/26 01:00:26;;;;;;;2.22;2.00;;;8.80;98.50;;;;;;5092712;28;20086;-73
2024/02/26 01:02:51;;;;;;;3.88;2.60;;;8.70;98.50;;;;;;5098232;28;20047;-74
2024/02/26 01:05:17;;;;;;;3.15;2.25;;;8.70;98.60;;;;;;5093592;28;20054;-74
2024/02/26 01:07:43;;;;;;;4.85;2.85;;;8.70;98.60;;;;;;5098185;28;20031;-74
2024/02/26 01:10:09;;;;;;;5.90;2.60;;;8.70;98.60;;;;;;5099863;28;20093;-73
2024/02/26 01:12:36;;;;;;;4.30;2.80;;;8.60;98.70;;;;;;5100495;28;20036;-74
2024/02/26 01:15:03;;;;;;;4.47;3.00;;;8.60;98.50;;;;;;5102082;28;20039;-74
2024/02/26 01:17:28;;;;;;;5.88;2.92;;;8.60;98.60;;;;;;5090213;28;20503;-74
2024/02/26 01:19:54;;;;;;;3.50;2.83;;;8.60;98.60;;;;;;5100622;28;20119;-73
2024/02/26 01:22:20;;;;;;;4.68;3.22;;;8.60;98.60;;;;;;5092286;28;20048;-73
2024/02/26 01:24:46;;;;;;;8.02;3.35;;;8.60;98.60;;;;;;5091674;28;20135;-73
2024/02/26 01:27:12;;;;;;;6.72;3.17;;;8.60;98.70;;;;;;5107295;27;20070;-73
2024/02/26 01:29:38;;;;;;;4.43;3.22;;;8.50;98.70;;;;;;5105691;27;20032;-74
2024/02/26 01:32:05;;;;;;;5.35;3.35;;;8.40;98.70;;;;;;5116200;27;20027;-74
2024/02/26 01:34:31;;;;;;;5.50;3.38;;;8.40;98.80;;;;;;5100050;27;20038;-73
2024/02/26 01:37:00;;;;;;;5.03;3.30;;;8.40;99.00;;;;;;5106490;27;20420;-73
2024/02/26 01:39:27;;;;;;;7.60;3.67;;;8.40;98.90;;;;;;5107981;28;20486;-73
2024/02/26 01:41:53;;;;;;;5.55;3.88;;;8.50;98.80;;;;;;5099778;28;20023;-74
2024/02/26 01:44:18;;;;;;;5.40;3.50;;;8.50;98.70;;;;;;5123684;27;20134;-73
2024/02/26 01:46:44;;;;;;;5.57;3.35;;;8.50;98.80;;;;;;5100787;28;20476;-73
2024/02/26 01:49:13;;;;;;;6.28;3.97;;;8.50;98.70;;;;;;5090434;28;20041;-73
2024/02/26 01:51:44;;;;;;;4.43;3.38;;;8.50;98.60;;;;;;5108585;28;20516;-74
2024/02/26 01:54:10;;;;;;;6.47;3.58;;;8.50;98.60;;;;;;5100762;28;20038;-74
2024/02/26 01:56:38;;;;;;;7.20;3.50;;;8.50;98.50;;;;;;5106396;28;20075;-74
2024/02/26 01:59:05;;;;;;;4.55;3.17;;;8.50;98.60;;;;;;5100765;28;20034;-75
2024/02/26 02:01:33;;;;;;;6.85;3.05;;;8.50;98.60;;;;;;5100942;27;20032;-75
2024/02/26 02:04:00;;;;;;;6.22;3.63;;;8.50;98.60;;;;;;5097102;28;20035;-74
2024/02/26 02:06:29;;;;;;;4.22;2.88;;;8.50;98.60;;;;;;5096143;28;20040;-75
2024/02/26 02:08:55;;;;;;;6.20;3.22;;;8.40;98.60;;;;;;5096425;28;20080;-74
2024/02/26 02:11:21;;;;;;;6.20;2.95;;;8.40;98.80;;;;;;5090702;28;20040;-74
2024/02/26 02:13:47;;;;;;;6.25;2.95;;;8.40;98.80;;;;;;5107199;28;20478;-74
2024/02/26 02:16:13;;;;;;;3.17;2.55;;;8.30;98.80;;;;;;5100550;27;20066;-74
2024/02/26 02:18:38;;;;;;;4.38;3.00;;;8.30;98.80;;;;;;5108633;28;20036;-75
2024/02/26 02:21:04;;;;;;;5.10;2.50;;;8.30;98.90;;;;;;5090596;28;20036;-74
2024/02/26 02:23:30;;;;;;;3.47;2.58;;;8.30;98.80;;;;;;5088353;28;20065;-74
2024/02/26 02:25:57;;;;;;;4.25;2.70;;;8.30;98.80;;;;;;5093090;28;20040;-74
2024/02/26 02:28:26;;;;;;;4.32;2.92;;;8.30;98.80;;;;;;5098770;28;20024;-74
2024/02/26 02:30:52;;;;;;;3.55;2.25;;;8.30;98.80;;;;;;5095117;28;20035;-74
2024/02/26 02:33:17;;;;;;;3.65;2.50;;;8.30;98.80;;;;;;5089970;28;20036;-74
2024/02/26 02:35:43;;;;;;;2.92;2.20;;;8.30;98.80;;;;;;5105102;27;20038;-75
2024/02/26 02:38:09;;;;;;;4.50;2.78;;;8.30;98.70;;;;;;5099456;28;20064;-74
2024/02/26 02:40:34;;;;;;;6.00;2.78;;;8.20;98.80;;;;;;5103681;28;20071;-75
2024/02/26 02:43:01;;;;;;;3.58;2.05;;;8.20;98.80;;;;;;5106711;28;20027;-75
2024/02/26 02:45:28;;;;;;;5.47;2.45;;;8.10;98.80;;;;;;5099512;28;20051;-74
2024/02/26 02:47:53;;;;;;;3.97;2.40;;;8.10;98.90;;;;;;5105265;28;20149;-74
2024/02/26 02:50:19;;;;;;;6.22;2.60;;;8.20;99.00;;;;;;5108266;28;20110;-72
2024/02/26 02:52:44;;;;;;;2.72;2.10;;;8.20;98.90;;;;;;5090483;28;20068;-75
2024/02/26 02:55:10;;;;;;;4.30;2.40;;;8.20;98.80;;;;;;5097270;28;20141;-74
2024/02/26 02:57:40;;;;;;;4.93;2.28;;;8.20;98.90;;;;;;5095032;28;20068;-74
2024/02/26 03:00:09;;;;;;;7.35;2.70;;;8.10;98.80;;;;;;5096099;28;20071;-75
2024/02/26 03:02:35;;;;;;;6.85;2.95;;;8.10;98.90;;;;;;5105723;28;20027;-75
2024/02/26 03:05:02;;;;;;;7.45;2.13;;;8.10;99.00;;;;;;5089087;28;20040;-74
2024/02/26 03:07:28;;;;;;;3.50;2.17;;;8.00;99.00;;;;;;5089548;28;20043;-74
2024/02/26 03:09:54;;;;;;;4.93;2.47;;;8.00;99.00;;;;;;5089448;28;20032;-74
2024/02/26 03:12:19;;;;;;;7.03;2.97;;;7.90;99.20;;;;;;5105620;28;20107;-74
2024/02/26 03:14:45;;;;;;;3.17;2.47;;;7.90;99.30;;;;;;5094986;28;20034;-74
2024/02/26 03:17:11;;;;;;;3.58;2.28;;;7.80;99.50;;;;;;5103807;28;20070;-74
2024/02/26 03:19:37;;;;;;;3.35;2.10;;;7.80;99.30;;;;;;5092947;28;20036;-74
2024/02/26 03:22:02;;;;;;;3.45;2.30;;;7.80;99.20;;;;;;5103846;28;20035;-74
2024/02/26 03:24:28;;;;;;;2.72;1.98;;;7.80;99.20;;;;;;5093998;28;20157;-74
2024/02/26 03:26:54;;;;;;;2.65;2.03;;;7.80;99.30;;;;;;5088503;28;20036;-74
2024/02/26 03:29:19;;;;;;;4.47;2.50;;;7.80;99.10;;;;;;5097775;28;20059;-74
2024/02/26 03:31:45;;;;;;;5.60;2.15;;;7.80;99.20;;;;;;5092544;28;20028;-74
2024/02/26 03:34:12;;;;;;;7.72;2.38;;;7.80;99.20;;;;;;5100382;27;20035;-74
2024/02/26 03:36:38;;;;;;;6.10;2.00;;;7.80;99.20;;;;;;5109577;28;20063;-74
2024/02/26 03:39:07;;;;;;;7.55;2.28;;;7.70;99.20;;;;;;5095303;28;20562;-74
2024/02/26 03:41:35;;;;;;;4.15;2.00;;;7.60;99.40;;;;;;5093361;28;20044;-74
2024/02/26 03:44:02;;;;;;;8.13;3.00;;;7.70;99.50;;;;;;5089032;28;20541;-74
2024/02/26 03:46:27;;;;;;;4.07;1.52;;;7.60;99.40;;;;;;5101037;28;20487;-74
2024/02/26 03:48:53;;;;;;;2.85;1.70;;;7.50;99.70;;;;;;5089815;28;20039;-74
2024/02/26 03:51:19;;;;;;;3.13;1.60;;;7.50;99.80;;;;;;5090738;28;20088;-74
2024/02/26 03:53:45;;;;;;;3.33;1.85;;;7.60;99.70;;;;;;5107851;28;20066;-73
2024/02/26 03:56:13;;;;;;;2.20;1.60;;;7.50;99.80;;;;;;5104352;28;20044;-74
2024/02/26 03:58:39;;;;;;;4.07;1.77;;;7.50;99.60;;;;;;5092426;28;20043;-74
2024/02/26 04:01:08;;;;;;;3.17;1.70;;;7.50;99.80;;;;;;5088037;28;20039;-74
2024/02/26 04:03:34;;;;;;;3.50;1.60;;;7.50;99.70;;;;;;5103389;28;20035;-74
2024/02/26 04:06:00;;;;;;;4.35;1.90;;;7.50;99.90;;;;;;5098977;28;20126;-74
2024/02/26 04:08:25;;;;;;;1.42;1.30;;;7.50;99.80;;;;;;5091851;28;20513;-74
2024/02/26 04:10:51;;;;;;;3.47;1.60;;;7.40;99.90;;;;;;5103502;28;20034;-74
2024/02/26 04:13:18;;;;;;;5.20;2.90;;;7.50;99.80;;;;;;5099127;28;20023;-74
2024/02/26 04:15:46;;;;;;;2.35;1.55;;;7.50;99.60;;;;;;5102373;28;20031;-74
2024/02/26 04:18:12;;;;;;;2.83;1.85;;;7.50;99.60;;;;;;5110602;28;20106;-74
2024/02/26 04:20:38;;;;;;;5.88;1.58;;;7.60;99.60;;;;;;5097215;28;20036;-74
2024/02/26 04:23:04;;;;;;;5.82;1.75;;;7.60;99.50;;;;;;5100272;28;20024;-74
2024/02/26 04:25:30;;;;;;;3.63;1.63;;;7.60;99.50;;;;;;5093320;28;20403;-73
2024/02/26 04:27:55;;;;;;;3.38;1.45;;;7.60;99.70;;;;;;5101484;28;20709;-74
2024/02/26 04:30:21;;;;;;;4.45;1.58;;;7.50;99.70;;;;;;5095629;28;20051;-74
2024/02/26 04:32:46;;;;;;;2.35;1.52;;;7.50;99.60;;;;;;5103983;28;20028;-74
2024/02/26 04:35:12;;;;;;;3.90;1.40;;;7.60;99.70;;;;;;5107747;27;20043;-73
2024/02/26 04:37:38;;;;;;;3.85;1.30;;;7.50;99.50;;;;;;5101065;28;20024;-74
2024/02/26 04:40:04;;;;;;;2.65;1.50;;;7.50;99.70;;;;;;5092046;28;20036;-74
2024/02/26 04:42:29;;;;;;;2.10;1.90;;;7.40;99.60;;;;;;5100518;28;20094;-75
2024/02/26 04:44:55;;;;;;;2.08;1.20;;;7.30;99.80;;;;;;5094563;28;20043;-73
2024/02/26 04:47:22;;;;;;;1.50;1.40;;;7.20;99.90;;;;;;5099808;28;20646;-73
2024/02/26 04:49:49;;;;;;;1.25;1.15;;;7.20;99.90;;;;;;5094599;28;20053;-74
2024/02/26 04:52:15;;;;;;;1.30;1.20;;;7.10;99.90;;;;;;5106254;28;20047;-74
2024/02/26 04:54:40;;;;;;;2.65;1.35;;;7.00;99.90;;;;;;5105434;28;20039;-74
2024/02/26 04:57:07;;;;;;;1.85;1.33;;;6.90;99.90;;;;;;5100077;28;20047;-74
2024/02/26 04:59:32;;;;;;;2.25;1.30;;;7.00;99.90;;;;;;5102814;28;20037;-74
2024/02/26 05:01:58;;;;;;;1.67;1.27;;;7.00;99.90;;;;;;5104686;28;20386;-74
2024/02/26 05:04:23;;;;;;;2.40;1.40;;;7.00;99.90;;;;;;5103550;28;20403;-73
2024/02/26 05:06:49;;;;;;;1.85;1.40;;;7.00;99.90;;;;;;5091900;28;20111;-76
2024/02/26 05:09:15;;;;;;;2.75;1.40;;;7.00;99.90;;;;;;5092924;28;20118;-74
2024/02/26 05:11:41;;;;;;;1.40;1.30;;;7.00;99.90;;;;;;5100493;28;20118;-74
2024/02/26 05:14:06;;;;;;;3.33;1.50;;;7.00;99.90;;;;;;5103084;28;20114;-72
2024/02/26 05:16:32;;;;;;;4.22;1.63;;;7.10;99.90;;;;;;5093488;28;20471;-73
2024/02/26 05:18:58;;;;;;;2.03;1.27;;;7.10;99.90;;;;;;5101319;28;20024;-73
2024/02/26 05:21:23;;;;;;;2.55;1.40;;;7.20;99.90;;;;;;5103069;28;20036;-74
2024/02/26 05:23:49;;;;;;;3.03;1.30;;;7.20;99.90;;;;;;5090920;28;20123;-73
2024/02/26 05:26:21;;;;;;;2.50;1.30;;;7.30;99.90;;;;;;5101729;28;20036;-73
2024/02/26 05:28:50;;;;;;;1.20;1.10;;;7.40;99.90;;;;;;5101960;28;20035;-73
2024/02/26 05:31:16;;;;;;;6.68;1.35;;;7.40;99.90;;;;;;5101276;28;20028;-75
2024/02/26 05:33:42;;;;;;;0.98;0.98;;;7.40;99.70;;;;;;5101468;28;20032;-74
2024/02/26 05:36:07;;;;;;;1.10;0.98;;;7.30;99.80;;;;;;5099969;27;20032;-75
2024/02/26 05:38:33;;;;;;;1.85;1.10;;;7.40;99.90;;;;;;5090750;28;20036;-75
2024/02/26 05:40:59;;;;;;;2.38;1.08;;;7.40;99.80;;;;;;5097083;28;20047;-73
2024/02/26 05:43:25;;;;;;;1.73;1.25;;;7.40;99.70;;;;;;5104730;28;20036;-73
2024/02/26 05:45:51;;;;;;;7.45;1.20;;;7.40;99.60;;;;;;5094180;28;20395;-73
2024/02/26 05:48:18;;;;;;;1.30;0.80;;;7.30;99.80;;;;;;5096046;28;20023;-73
2024/02/26 05:50:47;;;;;;;2.00;0.95;;;7.30;99.70;;;;;;5095534;28;20044;-73
2024/02/26 05:53:13;;;;;;;1.58;0.82;;;7.20;99.90;;;;;;5100154;28;20052;-73
2024/02/26 05:55:41;;;;;;;1.20;1.10;;;7.30;99.90;;;;;;5091209;28;20024;-73
2024/02/26 05:58:07;;;;;;;1.92;1.02;;;7.20;99.90;;;;;;5090328;28;20028;-73
2024/02/26 06:00:33;;;;;;;2.15;1.08;;;7.20;99.90;;;;;;5093582;28;20061;-73
2024/02/26 06:02:58;;;;;;;1.70;1.15;;;7.20;99.90;;;;;;5093286;28;20020;-73
2024/02/26 06:05:24;;;;;;;2.72;1.30;;;7.30;99.90;;;;;;5098791;28;20032;-73
2024/02/26 06:07:49;;;;;;;1.20;1.10;;;7.30;99.90;;;;;;5105164;28;20070;-73
2024/02/26 06:10:15;;;;;;;2.92;1.45;;;7.30;99.90;;;;;;5097580;28;20036;-73
2024/02/26 06:12:41;;;;;;;1.40;1.30;;;7.20;99.80;;;;;;5098902;28;20036;-73
2024/02/26 06:15:07;;;;;;;2.55;1.48;;;7.20;99.90;;;;;;5091250;28;20028;-73
2024/02/26 06:17:33;;;;;;;2.70;1.40;;;7.20;99.90;;;;;;5095533;28;20016;-73
2024/02/26 06:19:59;;;;;;;6.38;1.80;;;7.20;99.90;;;;;;5099476;28;20043;-73
2024/02/26 06:22:25;;;;;;;3.95;1.50;;;7.10;99.90;;;;;;5101779;28;20036;-73
2024/02/26 06:24:51;;;;;;;4.80;1.50;;;7.10;99.90;;;;;;5100197;28;20044;-73
2024/02/26 06:27:17;;;;;;;1.75;1.50;;;7.10;99.90;;;;;;5092815;28;20053;-73
2024/02/26 06:29:42;;;;;;;4.72;1.10;;;7.10;99.90;;;;;;5091997;28;20024;-73
2024/02/26 06:32:08;;;;;;;2.97;1.48;;;7.10;99.90;;;;;;5094516;28;20048;-73
2024/02/26 06:34:34;;;;;;;3.80;1.40;;;7.10;99.90;;;;;;5102188;27;20027;-73
2024/02/26 06:36:59;;;;;;;4.13;1.38;;;7.20;99.90;;;;;;5090163;28;20589;-73
2024/02/26 06:39:25;;;;;;;2.55;1.50;;;7.20;99.90;;;;;;5089074;28;20027;-73
2024/02/26 06:41:54;;;;;;;2.90;1.30;;;7.20;99.90;;;;;;5107021;28;20028;-73
2024/02/26 06:44:19;;;;;;;1.77;1.35;;;7.20;99.90;;;;;;5096970;28;20516;-73
2024/02/26 06:46:45;;;;;;;1.60;1.50;;;7.20;99.90;;;;;;5099083;28;20024;-73
2024/02/26 06:49:10;;;;;;;2.05;1.38;;;7.20;99.90;;;;;;5102992;28;20039;-74
2024/02/26 06:51:36;;;;;;;2.00;1.00;;;7.30;99.90;;;;;;5087634;28;20085;-74
2024/02/26 06:54:02;;;;;;;1.50;1.40;;;7.30;99.90;;;;;;5091310;28;20538;-75
2024/02/26 06:56:28;;;;;;;1.50;1.40;;;7.30;99.90;;;;;;5099316;28;20030;-73
2024/02/26 06:58:53;;;;;;;7.90;1.25;;;7.30;99.90;;;;;;5108989;28;20023;-73
2024/02/26 07:01:22;;;;;;;2.95;1.38;;;7.30;99.90;;;;;;5095998;28;20475;-74
2024/02/26 07:03:48;;;;;;;5.55;1.17;;;7.30;99.90;;;;;;5096136;28;20074;-73
2024/02/26 07:06:16;;;;;;;2.22;1.30;;;7.40;99.90;;;;;;5090622;28;20064;-73
2024/02/26 07:08:42;;;;;;;2.40;1.40;;;7.40;99.90;;;;;;5096937;28;20533;-72
2024/02/26 07:11:08;;;;;;;2.15;1.38;;;7.40;99.80;;;;;;5086832;28;20059;-72
2024/02/26 07:13:34;;;;;;;4.05;1.40;;;7.30;99.90;;;;;;5099674;28;20394;-72
2024/02/26 07:16:00;;;;;;;2.83;1.40;;;7.30;99.90;;;;;;5090825;28;20035;-72
2024/02/26 07:18:25;;;;;;;1.13;1.02;;;7.30;99.90;;;;;;5090040;28;20522;-72
2024/02/26 07:20:51;;;;;;;2.25;1.13;;;7.20;99.90;;;;;;5096385;28;20030;-72
2024/02/26 07:23:17;;;;;;;1.27;1.00;;;7.10;99.90;;;;;;5087054;28;20073;-72
2024/02/26 07:25:46;;;;;;;3.05;1.40;;;7.20;99.90;;;;;;5105014;28;20550;-72
2024/02/26 07:28:12;;;;;;;0.73;0.73;;;7.20;99.90;;;;;;5097204;28;20498;-72
2024/02/26 07:30:38;;;;;;;1.52;0.80;;;7.10;99.90;;;;;;5099309;28;20020;-72
2024/02/26 07:33:03;;;;;;;1.63;0.95;;;7.20;99.90;;;;;;5099781;28;20046;-72
2024/02/26 07:35:29;;;;;;;1.15;0.90;;;7.20;99.90;;;;;;5091927;27;20032;-72
2024/02/26 07:37:55;;;;;;;1.48;0.93;;;7.20;99.90;;;;;;5086258;28;20125;-72
2024/02/26 07:40:20;;;;;;;1.65;1.17;;;7.30;99.90;;;;;;5098242;28;20533;-72
2024/02/26 07:42:46;;;;;;;2.45;0.80;;;7.30;99.90;;;;;;5101622;28;20035;-72
2024/02/26 07:45:12;;;;;;;2.10;1.17;;;7.30;99.90;;;;;;5092489;28;20386;-72
2024/02/26 07:47:40;;;;;;;1.13;0.70;;;7.40;99.90;;;;;;5108487;28;20032;-72
2024/02/26 07:50:07;;;;;;;0.70;0.70;;;7.30;99.90;;;;;;5094460;28;20050;-72
2024/02/26 07:52:33;;;;;;;0.95;0.80;;;7.20;99.90;;;;;;5093080;28;20052;-72
2024/02/26 07:54:59;;;;;;;0.88;0.70;;;7.10;99.90;;;;;;5089623;28;20533;-72
2024/02/26 07:57:24;;;;;;;1.48;0.90;;;7.10;99.90;;;;;;5099075;28;20104;-72
2024/02/26 07:59:50;;;;;;;0.80;0.80;;;7.20;99.90;;;;;;5094219;28;20589;-72
2024/02/26 08:02:16;;;;;;;0.82;0.82;;;7.10;99.90;;;;;;5093268;28;20480;-72
2024/02/26 08:04:42;;;;;;;1.08;0.50;;;7.10;99.90;;;;;;5099667;28;20484;-72
2024/02/26 08:07:07;;;;;;;4.68;0.65;;;7.00;99.90;;;;;;5100273;28;20030;-72
2024/02/26 08:09:33;;;;;;;0.60;0.60;;;7.10;99.90;;;;;;5093949;28;20035;-72
2024/02/26 08:11:59;;;;;;;0.80;0.80;;;7.20;99.90;;;;;;5100159;28;20036;-72
2024/02/26 08:14:24;;;;;;;4.30;0.98;;;7.20;99.90;;;;;;5096573;28;20032;-71
2024/02/26 08:16:50;;;;;;;0.70;0.70;;;7.30;99.90;;;;;;5085640;28;20024;-72
2024/02/26 08:19:17;;;;;;;2.20;0.90;;;7.30;99.90;;;;;;5095373;28;20039;-73
2024/02/26 08:21:43;;;;;;;3.50;0.80;;;7.40;99.90;;;;;;5095967;28;20039;-72
2024/02/26 08:24:08;;;;;;;1.30;0.65;;;7.30;99.90;;;;;;5096954;28;20043;-72
2024/02/26 08:26:34;;;;;;;0.80;0.80;;;7.40;99.90;;;;;;5100478;28;20204;-72
2024/02/26 08:29:00;;;;;;;1.52;0.77;;;7.30;99.90;;;;;;5087527;28;20065;-72
2024/02/26 08:31:27;;;;;;;2.00;0.98;;;7.30;99.90;;;;;;5097031;28;20395;-72
2024/02/26 08:33:52;;;;;;;3.38;1.10;;;7.30;99.90;;;;;;5087681;28;20105;-72
2024/02/26 08:36:18;;;;;;;0.90;0.90;;;7.30;99.90;;;;;;5091649;28;20011;-72
2024/02/26 08:38:43;;;;;;;1.20;1.05;;;7.40;99.90;;;;;;5089705;28;20028;-72
2024/02/26 08:41:13;;;;;;;1.42;0.98;;;7.30;99.90;;;;;;5094767;28;20042;-72
2024/02/26 08:43:38;;;;;;;0.90;0.90;;;7.30;99.90;;;;;;5107233;28;20076;-72
2024/02/26 08:46:07;;;;;;;3.28;0.85;;;7.20;99.90;;;;;;5099952;28;20036;-72
2024/02/26 08:48:33;;;;;;;1.23;1.10;;;7.10;99.90;;;;;;5088131;28;20028;-72
2024/02/26 08:50:59;;;;;;;4.13;1.00;;;7.10;99.90;;;;;;5091780;28;20506;-72
2024/02/26 08:53:26;;;;;;;3.08;0.80;;;7.20;99.90;;;;;;5102378;28;20044;-72
2024/02/26 08:55:52;;;;;;;1.85;0.88;;;7.30;99.90;;;;;;5093482;28;20024;-72
2024/02/26 08:58:17;;;;;;;0.98;0.98;;;7.40;99.90;;;;;;5092050;28;20503;-72
2024/02/26 09:00:43;;;;;;;2.10;1.20;;;7.40;99.90;;;;;;5094902;28;20032;-72
2024/02/26 09:03:09;;;;;;;1.90;1.20;;;7.50;99.90;;;;;;5091103;28;20411;-72
2024/02/26 09:05:34;;;;;;;2.17;1.20;;;7.50;99.90;;;;;;5103079;28;20050;-72
2024/02/26 09:08:00;;;;;;;1.45;1.20;;;7.60;99.90;;;;;;5091778;28;20116;-72
2024/02/26 09:10:26;;;;;;;1.33;1.15;;;7.60;99.90;;;;;;5091357;28;20033;-72
2024/02/26 09:12:51;;;;;;;5.20;1.10;;;7.60;99.90;;;;;;5099563;28;20109;-72
2024/02/26 09:15:17;;;;;;;1.05;1.00;;;7.60;99.90;;;;;;5090743;28;20039;-72
2024/02/26 09:17:44;;;;;;;1.73;1.05;;;7.60;99.90;;;;;;5099703;28;20028;-72
2024/02/26 09:20:10;;;;;;;2.97;1.13;;;7.60;99.90;;;;;;5096170;28;20630;-72
2024/02/26 09:22:37;;;;;;;1.27;1.17;;;7.40;99.90;;;;;;5100446;28;20031;-72
2024/02/26 09:25:04;;;;;;;2.50;1.27;;;7.40;99.90;;;;;;5089352;28;20036;-72
2024/02/26 09:27:30;;;;;;;4.38;1.35;;;7.50;99.90;;;;;;5103552;28;20024;-72
2024/02/26 09:29:56;;;;;;;1.20;1.10;;;7.60;99.90;;;;;;5089103;28;20039;-72
2024/02/26 09:32:24;;;;;;;3.40;1.80;;;7.40;99.90;;;;;;5101076;28;20070;-72
2024/02/26 09:34:50;;;;;;;3.67;1.45;;;7.30;99.90;;;;;;5107668;27;20463;-72
2024/02/26 09:37:16;;;;;;;1.40;1.20;;;7.30;99.90;;;;;;5091262;28;20053;-72
2024/02/26 09:39:41;;;;;;;3.40;1.30;;;7.40;99.90;;;;;;5089028;28;20031;-72
2024/02/26 09:42:10;;;;;;;1.55;1.45;;;7.40;99.90;;;;;;5101070;28;20551;-72
2024/02/26 09:44:41;;;;;;;1.30;1.02;;;7.40;99.90;;;;;;5091114;28;20040;-72
2024/02/26 09:47:10;;;;;;;2.67;1.00;;;7.40;99.90;;;;;;5108799;28;20031;-72
2024/02/26 09:49:36;;;;;;;1.80;1.13;;;7.40;99.90;;;;;;5107536;28;20059;-72
2024/02/26 09:52:04;;;;;;;2.20;0.77;;;7.30;99.90;;;;;;5089972;28;20086;-72
2024/02/26 09:54:31;;;;;;;2.20;1.13;;;7.40;99.90;;;;;;5090299;28;20036;-72
2024/02/26 09:57:00;;;;;;;2.00;0.90;;;7.40;99.90;;;;;;5091703;28;20090;-72
2024/02/26 09:59:33;;;;;;;2.30;1.02;;;7.40;99.90;;;;;;5089609;28;20394;-72
2024/02/26 10:01:59;;;;;;;2.92;0.93;;;7.40;99.90;;;;;;5100055;28;20106;-72
2024/02/26 10:04:26;;;;;;;2.42;0.80;;;7.50;99.90;;;;;;5105851;28;20052;-72
2024/02/26 10:06:52;;;;;;;0.88;0.73;;;7.50;99.90;;;;;;5098061;28;20046;-72
2024/02/26 10:09:19;;;;;;;1.65;1.00;;;7.40;99.90;;;;;;5089672;28;20039;-72
2024/02/26 10:11:46;;;;;;;1.17;0.70;;;7.40;99.90;;;;;;5097773;28;20098;-72
2024/02/26 10:14:12;;;;;;;0.95;0.73;;;7.30;99.90;;;;;;5106770;28;20036;-72
2024/02/26 10:16:38;;;;;;;1.25;1.15;;;7.30;99.90;;;;;;5102654;28;20042;-72
2024/02/26 10:19:07;;;;;;;3.15;0.98;;;7.40;99.90;;;;;;5093911;28;20063;-72
2024/02/26 10:21:32;;;;;;;1.83;1.30;;;7.40;99.90;;;;;;5090111;28;20040;-72
2024/02/26 10:23:58;;;;;;;2.22;0.90;;;7.60;99.90;;;;;;5089507;28;20032;-72
2024/02/26 10:26:24;;;;;;;1.80;1.00;;;7.70;99.90;;;;;;5099056;28;20122;-72
2024/02/26 10:28:50;;;;;;;1.83;0.82;;;7.70;99.90;;;;;;5091850;28;20035;-72
2024/02/26 10:31:15;;;;;;;1.77;0.85;;;7.70;99.90;;;;;;5102340;28;20185;-72
2024/02/26 10:33:43;;;;;;;2.40;1.20;;;7.70;99.90;;;;;;5098868;28;20532;-72
2024/02/26 10:36:09;;;;;;;2.30;1.33;;;7.80;99.90;;;;;;5101220;27;20478;-72
2024/02/26 10:38:36;;;;;;;3.38;0.90;;;7.90;99.90;;;;;;5089532;28;20039;-72
2024/02/26 10:41:06;;;;;;;2.78;1.10;;;7.80;99.90;;;;;;5089342;28;20051;-72
2024/02/26 10:43:32;;;;;;;1.48;1.08;;;7.80;99.90;;;;;;5100212;28;20474;-73
2024/02/26 10:45:58;;;;;;;1.73;1.17;;;7.70;99.90;;;;;;5090789;28;20036;-72
2024/02/26 10:48:27;;;;;;;2.30;1.30;;;7.70;99.90;;;;;;5101404;28;20028;-72
2024/02/26 10:50:53;;;;;;;3.20;1.38;;;7.70;99.90;;;;;;5089608;28;20154;-72
2024/02/26 10:53:22;;;;;;;5.88;1.48;;;7.70;99.90;;;;;;5088938;28;20117;-72
2024/02/26 10:56:18;;;;;;;14.32;3.95;;;7.70;99.90;;;;;;5087952;28;20116;-72
2024/02/26 10:58:45;;;;;;;2.10;1.65;;;7.90;99.90;;;;;;5076043;28;20044;-72
2024/02/26 11:01:12;;;;;;;4.30;1.70;;;7.90;99.90;;;;;;5087884;28;20513;-72
2024/02/26 11:03:39;;;;;;;4.40;1.80;;;7.70;99.90;;;;;;5089523;28;20044;-72
2024/02/26 11:06:05;;;;;;;6.47;1.63;;;7.70;99.90;;;;;;5104361;28;20051;-72
2024/02/26 11:08:32;;;;;;;3.55;1.77;;;7.80;99.90;;;;;;5098036;28;20488;-72
2024/02/26 11:10:58;;;;;;;3.08;2.10;;;7.80;99.90;;;;;;5088571;28;20393;-72
2024/02/26 11:13:29;;;;;;;3.65;2.28;;;7.80;99.90;;;;;;5096576;28;20040;-72
2024/02/26 11:15:59;;;;;;;2.35;1.70;;;7.80;99.90;;;;;;5092662;28;20088;-73
2024/02/26 11:18:27;;;;;;;2.63;1.50;;;7.90;99.90;;;;;;5092895;28;20038;-72
2024/02/26 11:20:57;;;;;;;3.17;2.00;;;7.90;99.90;;;;;;5096710;28;20066;-73
2024/02/26 11:23:23;;;;;;;3.65;2.22;;;7.90;99.90;;;;;;5088516;28;20032;-72
2024/02/26 11:25:55;;;;;;;5.78;1.77;;;8.00;99.90;;;;;;5088144;28;20127;-72
2024/02/26 11:28:22;;;;;;;5.70;2.08;;;8.10;99.90;;;;;;5098301;28;20032;-75
2024/02/26 11:30:49;;;;;;;3.38;1.88;;;8.10;99.90;;;;;;5097878;28;20035;-73
2024/02/26 11:33:15;;;;;;;3.53;2.00;;;7.90;99.90;;;;;;5089283;28;20020;-73
2024/02/26 11:35:42;;;;;;;6.32;2.20;;;7.90;99.90;;;;;;5093946;28;20134;-73
2024/02/26 11:38:08;;;;;;;3.95;1.80;;;7.90;99.90;;;;;;5086354;28;20027;-73
2024/02/26 11:40:39;;;;;;;5.22;2.63;;;8.00;99.90;;;;;;5093793;28;20124;-73
2024/02/26 11:43:05;;;;;;;5.00;2.80;;;8.10;99.90;;;;;;5093122;28;20060;-72
2024/02/26 11:45:40;;;;;;;5.07;3.28;;;8.20;99.90;;;;;;5094959;28;20090;-72
2024/02/26 11:48:28;;;;;;;7.55;2.78;;;8.20;99.90;;;;;;5090305;28;20027;-72
2024/02/26 11:50:55;;;;;;;8.25;3.10;;;8.30;99.90;;;;;;5089734;28;20482;-72
2024/02/26 11:53:26;;;;;;;5.70;2.65;;;8.20;99.90;;;;;;5096292;28;20047;-72
2024/02/26 11:56:17;;;;;;;8.43;3.20;;;8.10;99.90;;;;;;5100023;28;20075;-72
2024/02/26 11:58:43;;;;;;;6.40;2.55;;;8.00;99.90;;;;;;5092550;28;20088;-72
2024/02/26 12:01:52;;;;;;;8.38;2.75;;;8.10;99.90;;;;;;5092354;28;20036;-75
2024/02/26 12:04:26;;;;;;;7.13;3.20;;;8.40;99.90;;;;;;5087220;28;20048;-73
2024/02/26 12:06:55;;;;;;;8.82;3.42;;;8.30;99.90;;;;;;5087550;28;20047;-73
2024/02/26 12:09:41;;;;;;;5.30;3.03;;;8.40;99.90;;;;;;5101033;28;20020;-73
2024/02/26 12:12:18;;;;;;;3.95;2.60;;;8.40;99.90;;;;;;5088811;28;20101;-71
2024/02/26 12:14:55;;;;;;;5.07;2.63;;;8.40;99.90;;;;;;5087949;28;20070;-72
2024/02/26 12:17:25;;;;;;;6.50;3.08;;;8.30;99.90;;;;;;5102242;28;20425;-73
2024/02/26 12:19:52;;;;;;;6.00;3.22;;;8.40;99.90;;;;;;5097744;28;20028;-73
2024/02/26 12:22:19;;;;;;;7.43;3.72;;;8.50;99.90;;;;;;5091597;28;20476;-71
2024/02/26 12:24:45;;;;;;;6.78;3.40;;;8.60;99.90;;;;;;5086602;28;21553;-72
2024/02/26 12:27:10;;;;;;;5.38;3.13;;;8.60;99.90;;;;;;5105124;28;20032;-71
2024/02/26 12:29:39;;;;;;;6.43;3.30;;;8.50;99.90;;;;;;5095892;28;20114;-73
2024/02/26 12:32:05;;;;;;;5.80;3.28;;;8.40;99.90;;;;;;5108205;28;20046;-73
2024/02/26 12:34:32;;;;;;;8.18;3.40;;;8.40;99.90;;;;;;5107126;27;20493;-73
2024/02/26 12:36:58;;;;;;;9.13;3.80;;;8.30;99.90;;;;;;5091104;28;20061;-73
2024/02/26 12:39:24;;;;;;;6.80;3.17;;;8.20;99.90;;;;;;5113161;27;20031;-74
2024/02/26 12:41:49;;;;;;;5.95;3.15;;;8.30;99.90;;;;;;5102776;27;20105;-74
2024/02/26 12:44:28;;;;;;;4.38;2.55;;;8.40;99.90;;;;;;5093514;28;20441;-75
2024/02/26 12:47:04;;;;;;;6.20;3.65;;;8.30;99.90;;;;;;5093332;28;20032;-73
2024/02/26 12:49:30;;;;;;;7.97;4.20;;;8.30;99.90;;;;;;5089923;28;20027;-73
2024/02/26 12:52:01;;;;;;;7.93;4.07;;;8.30;99.90;;;;;;5090520;28;20408;-73
2024/02/26 12:54:31;;;;;;;7.88;3.13;;;8.50;99.90;;;;;;5092911;28;20028;-74
2024/02/26 12:56:58;;;;;;;7.05;3.55;;;8.30;99.90;;;;;;5092181;28;20067;-73